sensor_id;sensor_type;location;lat;lon;timestamp;temperature;humidity
32769;DHT22;23049;54.304;8.826;2022-08-03T00:01:55;16.80;99.90
32769;DHT22;23049;54.304;8.826;2022-08-03T00:04:20;16.90;99.90
32769;DHT22;23049;54.304;8.826;2022-08-03T00:06:46;16.90;99.90
32769;DHT22;23049;54.304;8.826;2022-08-03T00:09:11;17.00;99.90
32769;DHT22;23049;54.304;8.826;2022-08-03T00:11:37;17.10;99.90
32769;DHT22;23049;54.304;8.826;2022-08-03T00:14:04;17.30;99.90
32769;DHT22;23049;54.304;8.826;2022-08-03T00:16:30;17.30;99.90
32769;DHT22;23049;54.304;8.826;2022-08-03T00:18:56;17.10;99.90
32769;DHT22;23049;54.304;8.826;2022-08-03T00:21:22;17.00;99.90
32769;DHT22;23049;54.304;8.826;2022-08-03T00:23:47;17.10;99.90
32769;DHT22;23049;54.304;8.826;2022-08-03T00:26:13;17.20;99.90
32769;DHT22;23049;54.304;8.826;2022-08-03T00:28:39;17.30;99.90
32769;DHT22;23049;54.304;8.826;2022-08-03T00:31:05;17.40;99.90
32769;DHT22;23049;54.304;8.826;2022-08-03T00:33:31;17.40;99.90
32769;DHT22;23049;54.304;8.826;2022-08-03T00:35:57;17.50;99.90
32769;DHT22;23049;54.304;8.826;2022-08-03T00:40:38;17.50;99.90
32769;DHT22;23049;54.304;8.826;2022-08-03T00:43:05;17.40;99.90
32769;DHT22;23049;54.304;8.826;2022-08-03T00:45:36;17.40;99.90
32769;DHT22;23049;54.304;8.826;2022-08-03T00:48:03;17.40;99.90
32769;DHT22;23049;54.304;8.826;2022-08-03T00:50:31;17.40;99.90
32769;DHT22;23049;54.304;8.826;2022-08-03T00:53:00;17.50;99.90
32769;DHT22;23049;54.304;8.826;2022-08-03T00:55:26;17.60;99.90
32769;DHT22;23049;54.304;8.826;2022-08-03T00:57:52;17.60;99.90
32769;DHT22;23049;54.304;8.826;2022-08-03T01:00:21;17.60;99.90
32769;DHT22;23049;54.304;8.826;2022-08-03T01:02:47;17.60;99.90
32769;DHT22;23049;54.304;8.826;2022-08-03T01:05:13;17.70;99.90
32769;DHT22;23049;54.304;8.826;2022-08-03T01:07:55;17.70;99.90
32769;DHT22;23049;54.304;8.826;2022-08-03T01:13:36;17.60;99.90
32769;DHT22;23049;54.304;8.826;2022-08-03T01:16:14;17.50;99.90
32769;DHT22;23049;54.304;8.826;2022-08-03T01:18:59;17.40;99.90
32769;DHT22;23049;54.304;8.826;2022-08-03T01:21:31;17.60;99.90
32769;DHT22;23049;54.304;8.826;2022-08-03T01:32:25;18.00;99.90
32769;DHT22;23049;54.304;8.826;2022-08-03T01:35:03;18.20;99.90
32769;DHT22;23049;54.304;8.826;2022-08-03T01:37:47;18.30;99.90
32769;DHT22;23049;54.304;8.826;2022-08-03T01:40:15;18.50;99.90
32769;DHT22;23049;54.304;8.826;2022-08-03T01:42:43;18.60;99.90
32769;DHT22;23049;54.304;8.826;2022-08-03T01:45:11;18.60;99.90
32769;DHT22;23049;54.304;8.826;2022-08-03T01:47:39;18.70;99.90
32769;DHT22;23049;54.304;8.826;2022-08-03T01:50:06;18.80;99.90
32769;DHT22;23049;54.304;8.826;2022-08-03T01:52:33;18.90;99.90
32769;DHT22;23049;54.304;8.826;2022-08-03T01:55:02;18.90;99.90
32769;DHT22;23049;54.304;8.826;2022-08-03T01:57:28;19.00;99.90
32769;DHT22;23049;54.304;8.826;2022-08-03T01:59:56;19.00;99.90
32769;DHT22;23049;54.304;8.826;2022-08-03T02:02:24;19.00;99.90
32769;DHT22;23049;54.304;8.826;2022-08-03T02:04:52;19.10;99.90
32769;DHT22;23049;54.304;8.826;2022-08-03T02:07:19;19.20;99.90
32769;DHT22;23049;54.304;8.826;2022-08-03T02:09:48;19.20;99.90
32769;DHT22;23049;54.304;8.826;2022-08-03T02:12:16;19.20;99.90
32769;DHT22;23049;54.304;8.826;2022-08-03T02:14:43;19.20;99.90
32769;DHT22;23049;54.304;8.826;2022-08-03T02:17:11;19.20;99.90
32769;DHT22;23049;54.304;8.826;2022-08-03T02:19:39;19.20;99.90
32769;DHT22;23049;54.304;8.826;2022-08-03T02:22:09;19.20;99.90
32769;DHT22;23049;54.304;8.826;2022-08-03T02:24:36;19.20;99.90
32769;DHT22;23049;54.304;8.826;2022-08-03T02:27:04;19.20;99.90
32769;DHT22;23049;54.304;8.826;2022-08-03T02:29:33;19.30;99.90
32769;DHT22;23049;54.304;8.826;2022-08-03T02:32:02;19.30;99.90
32769;DHT22;23049;54.304;8.826;2022-08-03T02:34:30;19.30;99.90
32769;DHT22;23049;54.304;8.826;2022-08-03T02:36:58;19.30;99.90
32769;DHT22;23049;54.304;8.826;2022-08-03T02:39:27;19.30;99.90
32769;DHT22;23049;54.304;8.826;2022-08-03T02:41:55;19.40;99.90
32769;DHT22;23049;54.304;8.826;2022-08-03T02:44:27;19.40;99.90
32769;DHT22;23049;54.304;8.826;2022-08-03T02:47:00;19.40;99.90
32769;DHT22;23049;54.304;8.826;2022-08-03T02:49:26;19.40;99.90
32769;DHT22;23049;54.304;8.826;2022-08-03T02:51:54;19.40;99.90
32769;DHT22;23049;54.304;8.826;2022-08-03T02:54:21;19.40;99.90
32769;DHT22;23049;54.304;8.826;2022-08-03T02:56:48;19.50;99.90
32769;DHT22;23049;54.304;8.826;2022-08-03T02:59:14;19.50;99.90
32769;DHT22;23049;54.304;8.826;2022-08-03T03:01:41;19.50;99.90
32769;DHT22;23049;54.304;8.826;2022-08-03T03:04:10;19.60;99.90
32769;DHT22;23049;54.304;8.826;2022-08-03T03:06:37;19.60;99.90
32769;DHT22;23049;54.304;8.826;2022-08-03T03:09:03;19.70;99.90
32769;DHT22;23049;54.304;8.826;2022-08-03T03:11:29;19.70;99.90
32769;DHT22;23049;54.304;8.826;2022-08-03T03:13:56;19.70;99.90
32769;DHT22;23049;54.304;8.826;2022-08-03T03:18:55;19.70;99.90
32769;DHT22;23049;54.304;8.826;2022-08-03T03:21:22;19.70;99.90
32769;DHT22;23049;54.304;8.826;2022-08-03T03:23:49;19.70;99.90
32769;DHT22;23049;54.304;8.826;2022-08-03T03:26:15;19.80;99.90
32769;DHT22;23049;54.304;8.826;2022-08-03T03:28:41;19.80;99.90
32769;DHT22;23049;54.304;8.826;2022-08-03T03:31:07;19.80;99.90
32769;DHT22;23049;54.304;8.826;2022-08-03T03:33:34;19.80;99.90
32769;DHT22;23049;54.304;8.826;2022-08-03T03:36:02;19.80;99.90
32769;DHT22;23049;54.304;8.826;2022-08-03T03:38:29;19.80;99.90
32769;DHT22;23049;54.304;8.826;2022-08-03T03:40:55;19.80;99.90
32769;DHT22;23049;54.304;8.826;2022-08-03T03:43:22;19.80;99.90
32769;DHT22;23049;54.304;8.826;2022-08-03T03:45:48;19.80;99.90
32769;DHT22;23049;54.304;8.826;2022-08-03T03:48:14;19.80;99.90
32769;DHT22;23049;54.304;8.826;2022-08-03T03:50:40;19.80;99.90
32769;DHT22;23049;54.304;8.826;2022-08-03T03:53:08;19.70;99.90
32769;DHT22;23049;54.304;8.826;2022-08-03T03:55:37;19.70;99.90
32769;DHT22;23049;54.304;8.826;2022-08-03T03:58:03;19.80;99.90
32769;DHT22;23049;54.304;8.826;2022-08-03T04:00:29;19.80;99.90
32769;DHT22;23049;54.304;8.826;2022-08-03T04:02:55;19.80;99.90
32769;DHT22;23049;54.304;8.826;2022-08-03T04:05:21;19.80;99.90
32769;DHT22;23049;54.304;8.826;2022-08-03T04:08:13;19.90;99.90
32769;DHT22;23049;54.304;8.826;2022-08-03T04:11:27;20.00;99.90
32769;DHT22;23049;54.304;8.826;2022-08-03T04:16:24;20.10;99.90
32769;DHT22;23049;54.304;8.826;2022-08-03T04:21:23;20.10;99.90
32769;DHT22;23049;54.304;8.826;2022-08-03T04:23:53;20.10;99.90
32769;DHT22;23049;54.304;8.826;2022-08-03T04:26:21;20.10;99.90
32769;DHT22;23049;54.304;8.826;2022-08-03T04:28:48;20.20;99.90
32769;DHT22;23049;54.304;8.826;2022-08-03T04:31:16;20.10;99.90
32769;DHT22;23049;54.304;8.826;2022-08-03T04:33:43;20.10;99.90
32769;DHT22;23049;54.304;8.826;2022-08-03T04:36:13;20.10;99.90
32769;DHT22;23049;54.304;8.826;2022-08-03T04:38:58;20.10;99.90
32769;DHT22;23049;54.304;8.826;2022-08-03T04:41:26;20.10;99.90
32769;DHT22;23049;54.304;8.826;2022-08-03T04:43:54;19.90;99.90
32769;DHT22;23049;54.304;8.826;2022-08-03T04:46:22;19.90;99.90
32769;DHT22;23049;54.304;8.826;2022-08-03T04:48:50;19.80;99.90
32769;DHT22;23049;54.304;8.826;2022-08-03T04:51:16;19.80;99.90
32769;DHT22;23049;54.304;8.826;2022-08-03T04:53:42;19.80;99.90
32769;DHT22;23049;54.304;8.826;2022-08-03T04:56:08;19.80;99.90
32769;DHT22;23049;54.304;8.826;2022-08-03T04:58:34;19.90;99.90
32769;DHT22;23049;54.304;8.826;2022-08-03T05:03:32;19.90;99.90
32769;DHT22;23049;54.304;8.826;2022-08-03T05:05:57;19.90;99.90
32769;DHT22;23049;54.304;8.826;2022-08-03T05:08:23;19.90;99.90
32769;DHT22;23049;54.304;8.826;2022-08-03T05:10:48;19.90;99.90
32769;DHT22;23049;54.304;8.826;2022-08-03T05:13:14;20.20;99.90
32769;DHT22;23049;54.304;8.826;2022-08-03T05:15:40;20.60;99.90
32769;DHT22;23049;54.304;8.826;2022-08-03T05:18:06;21.20;99.90
32769;DHT22;23049;54.304;8.826;2022-08-03T05:20:32;21.70;99.90
32769;DHT22;23049;54.304;8.826;2022-08-03T05:22:57;22.20;99.90
32769;DHT22;23049;54.304;8.826;2022-08-03T05:25:26;22.70;99.90
32769;DHT22;23049;54.304;8.826;2022-08-03T05:27:51;22.90;99.90
32769;DHT22;23049;54.304;8.826;2022-08-03T05:30:17;23.00;99.90
32769;DHT22;23049;54.304;8.826;2022-08-03T05:32:43;23.30;99.90
32769;DHT22;23049;54.304;8.826;2022-08-03T05:35:09;23.60;99.90
32769;DHT22;23049;54.304;8.826;2022-08-03T05:37:34;23.90;99.90
32769;DHT22;23049;54.304;8.826;2022-08-03T05:40:00;24.10;99.90
32769;DHT22;23049;54.304;8.826;2022-08-03T05:42:26;24.20;99.90
32769;DHT22;23049;54.304;8.826;2022-08-03T05:44:52;24.20;99.90
32769;DHT22;23049;54.304;8.826;2022-08-03T05:47:17;24.10;99.90
32769;DHT22;23049;54.304;8.826;2022-08-03T05:49:43;24.10;99.90
32769;DHT22;23049;54.304;8.826;2022-08-03T05:52:08;24.20;99.90
32769;DHT22;23049;54.304;8.826;2022-08-03T05:54:34;23.70;99.90
32769;DHT22;23049;54.304;8.826;2022-08-03T05:57:00;22.90;99.90
32769;DHT22;23049;54.304;8.826;2022-08-03T05:59:25;22.20;99.90
32769;DHT22;23049;54.304;8.826;2022-08-03T06:01:51;21.70;99.90
32769;DHT22;23049;54.304;8.826;2022-08-03T06:04:17;21.50;99.90
32769;DHT22;23049;54.304;8.826;2022-08-03T06:06:42;21.50;99.90
32769;DHT22;23049;54.304;8.826;2022-08-03T06:09:09;21.70;99.90
32769;DHT22;23049;54.304;8.826;2022-08-03T06:11:35;21.90;99.90
32769;DHT22;23049;54.304;8.826;2022-08-03T06:14:02;22.00;99.90
32769;DHT22;23049;54.304;8.826;2022-08-03T06:16:27;22.10;99.90
32769;DHT22;23049;54.304;8.826;2022-08-03T06:18:53;22.10;99.90
32769;DHT22;23049;54.304;8.826;2022-08-03T06:21:19;22.00;99.90
32769;DHT22;23049;54.304;8.826;2022-08-03T06:23:45;21.80;99.90
32769;DHT22;23049;54.304;8.826;2022-08-03T06:26:12;21.70;99.90
32769;DHT22;23049;54.304;8.826;2022-08-03T06:28:38;21.60;99.90
32769;DHT22;23049;54.304;8.826;2022-08-03T06:31:04;21.50;99.90
32769;DHT22;23049;54.304;8.826;2022-08-03T06:33:29;21.50;99.90
32769;DHT22;23049;54.304;8.826;2022-08-03T06:35:55;21.40;99.90
32769;DHT22;23049;54.304;8.826;2022-08-03T06:38:21;21.30;99.90
32769;DHT22;23049;54.304;8.826;2022-08-03T06:40:46;21.20;99.90
32769;DHT22;23049;54.304;8.826;2022-08-03T06:43:12;21.20;99.90
32769;DHT22;23049;54.304;8.826;2022-08-03T06:45:40;21.20;99.90
32769;DHT22;23049;54.304;8.826;2022-08-03T06:48:10;21.10;99.90
32769;DHT22;23049;54.304;8.826;2022-08-03T06:50:37;21.10;99.90
32769;DHT22;23049;54.304;8.826;2022-08-03T06:53:04;21.10;99.90
32769;DHT22;23049;54.304;8.826;2022-08-03T06:55:30;21.00;99.90
32769;DHT22;23049;54.304;8.826;2022-08-03T06:57:57;21.00;99.90
32769;DHT22;23049;54.304;8.826;2022-08-03T07:00:23;21.00;99.90
32769;DHT22;23049;54.304;8.826;2022-08-03T07:02:49;20.90;99.90
32769;DHT22;23049;54.304;8.826;2022-08-03T07:05:15;20.90;99.90
32769;DHT22;23049;54.304;8.826;2022-08-03T07:07:41;21.10;99.90
32769;DHT22;23049;54.304;8.826;2022-08-03T07:10:07;21.20;99.90
32769;DHT22;23049;54.304;8.826;2022-08-03T07:12:34;21.30;99.90
32769;DHT22;23049;54.304;8.826;2022-08-03T07:15:01;21.30;99.90
32769;DHT22;23049;54.304;8.826;2022-08-03T07:17:28;21.40;99.90
32769;DHT22;23049;54.304;8.826;2022-08-03T07:19:54;21.50;99.90
32769;DHT22;23049;54.304;8.826;2022-08-03T07:22:20;21.50;99.90
32769;DHT22;23049;54.304;8.826;2022-08-03T07:24:45;21.50;99.90
32769;DHT22;23049;54.304;8.826;2022-08-03T07:27:12;21.60;99.90
32769;DHT22;23049;54.304;8.826;2022-08-03T07:29:37;21.70;99.90
32769;DHT22;23049;54.304;8.826;2022-08-03T07:32:04;21.70;99.90
32769;DHT22;23049;54.304;8.826;2022-08-03T07:34:29;21.80;99.90
32769;DHT22;23049;54.304;8.826;2022-08-03T07:36:55;21.80;99.90
32769;DHT22;23049;54.304;8.826;2022-08-03T07:39:21;21.80;99.90
32769;DHT22;23049;54.304;8.826;2022-08-03T07:41:46;21.90;99.90
32769;DHT22;23049;54.304;8.826;2022-08-03T07:44:14;21.90;99.90
32769;DHT22;23049;54.304;8.826;2022-08-03T07:46:40;21.90;99.90
32769;DHT22;23049;54.304;8.826;2022-08-03T07:49:06;22.00;99.90
32769;DHT22;23049;54.304;8.826;2022-08-03T07:51:31;22.00;99.90
32769;DHT22;23049;54.304;8.826;2022-08-03T07:53:57;22.00;99.90
32769;DHT22;23049;54.304;8.826;2022-08-03T07:56:25;22.10;99.90
32769;DHT22;23049;54.304;8.826;2022-08-03T07:58:51;22.10;99.90
32769;DHT22;23049;54.304;8.826;2022-08-03T08:01:17;22.20;99.90
32769;DHT22;23049;54.304;8.826;2022-08-03T08:03:44;22.20;99.90
32769;DHT22;23049;54.304;8.826;2022-08-03T08:06:10;22.20;99.90
32769;DHT22;23049;54.304;8.826;2022-08-03T08:08:37;22.30;99.90
32769;DHT22;23049;54.304;8.826;2022-08-03T08:11:03;22.30;99.90
32769;DHT22;23049;54.304;8.826;2022-08-03T08:13:28;22.30;99.90
32769;DHT22;23049;54.304;8.826;2022-08-03T08:15:54;22.30;99.90
32769;DHT22;23049;54.304;8.826;2022-08-03T08:18:20;22.30;99.90
32769;DHT22;23049;54.304;8.826;2022-08-03T08:23:13;22.30;99.90
32769;DHT22;23049;54.304;8.826;2022-08-03T08:25:39;22.30;99.90
32769;DHT22;23049;54.304;8.826;2022-08-03T08:28:04;22.30;99.90
32769;DHT22;23049;54.304;8.826;2022-08-03T08:30:32;22.30;99.90
32769;DHT22;23049;54.304;8.826;2022-08-03T08:32:58;22.40;99.90
32769;DHT22;23049;54.304;8.826;2022-08-03T08:35:23;22.40;99.90
32769;DHT22;23049;54.304;8.826;2022-08-03T08:37:49;22.30;99.90
32769;DHT22;23049;54.304;8.826;2022-08-03T08:40:15;22.40;99.90
32769;DHT22;23049;54.304;8.826;2022-08-03T08:42:42;22.40;99.90
32769;DHT22;23049;54.304;8.826;2022-08-03T08:45:08;22.40;99.90
32769;DHT22;23049;54.304;8.826;2022-08-03T08:47:38;22.50;99.90
32769;DHT22;23049;54.304;8.826;2022-08-03T08:50:04;22.40;99.90
32769;DHT22;23049;54.304;8.826;2022-08-03T08:52:32;22.40;99.90
32769;DHT22;23049;54.304;8.826;2022-08-03T08:55:00;22.50;99.90
32769;DHT22;23049;54.304;8.826;2022-08-03T08:57:30;22.50;99.90
32769;DHT22;23049;54.304;8.826;2022-08-03T08:59:58;22.50;99.90
32769;DHT22;23049;54.304;8.826;2022-08-03T09:02:24;22.60;99.90
32769;DHT22;23049;54.304;8.826;2022-08-03T09:04:50;22.60;99.90
32769;DHT22;23049;54.304;8.826;2022-08-03T09:07:17;22.70;99.90
32769;DHT22;23049;54.304;8.826;2022-08-03T09:09:44;22.80;99.90
32769;DHT22;23049;54.304;8.826;2022-08-03T09:12:10;22.80;99.90
32769;DHT22;23049;54.304;8.826;2022-08-03T09:14:35;22.90;99.90
32769;DHT22;23049;54.304;8.826;2022-08-03T09:19:14;23.00;99.90
32769;DHT22;23049;54.304;8.826;2022-08-03T09:21:39;23.00;99.90
32769;DHT22;23049;54.304;8.826;2022-08-03T09:24:06;23.00;99.90
32769;DHT22;23049;54.304;8.826;2022-08-03T09:26:36;23.00;99.90
32769;DHT22;23049;54.304;8.826;2022-08-03T09:29:06;23.00;99.90
32769;DHT22;23049;54.304;8.826;2022-08-03T09:34:01;23.10;99.90
32769;DHT22;23049;54.304;8.826;2022-08-03T09:39:06;23.30;99.90
32769;DHT22;23049;54.304;8.826;2022-08-03T09:41:35;23.30;99.90
32769;DHT22;23049;54.304;8.826;2022-08-03T09:44:01;23.30;99.90
32769;DHT22;23049;54.304;8.826;2022-08-03T09:46:27;23.30;99.90
32769;DHT22;23049;54.304;8.826;2022-08-03T09:49:11;23.40;99.90
32769;DHT22;23049;54.304;8.826;2022-08-03T09:51:37;23.50;99.90
32769;DHT22;23049;54.304;8.826;2022-08-03T09:54:03;23.50;99.90
32769;DHT22;23049;54.304;8.826;2022-08-03T09:56:43;23.50;99.90
32769;DHT22;23049;54.304;8.826;2022-08-03T09:59:11;23.50;99.90
32769;DHT22;23049;54.304;8.826;2022-08-03T10:01:37;23.50;99.90
32769;DHT22;23049;54.304;8.826;2022-08-03T10:04:12;23.70;99.90
32769;DHT22;23049;54.304;8.826;2022-08-03T10:06:45;23.70;99.90
32769;DHT22;23049;54.304;8.826;2022-08-03T10:09:14;23.70;99.90
32769;DHT22;23049;54.304;8.826;2022-08-03T10:11:42;23.80;99.90
32769;DHT22;23049;54.304;8.826;2022-08-03T10:14:09;23.90;99.90
32769;DHT22;23049;54.304;8.826;2022-08-03T10:16:38;23.90;99.90
32769;DHT22;23049;54.304;8.826;2022-08-03T10:19:06;23.90;99.90
32769;DHT22;23049;54.304;8.826;2022-08-03T10:21:34;24.00;99.90
32769;DHT22;23049;54.304;8.826;2022-08-03T10:24:06;24.10;99.90
32769;DHT22;23049;54.304;8.826;2022-08-03T10:26:33;24.20;99.90
32769;DHT22;23049;54.304;8.826;2022-08-03T10:29:01;24.10;99.90
32769;DHT22;23049;54.304;8.826;2022-08-03T10:31:37;24.30;99.90
32769;DHT22;23049;54.304;8.826;2022-08-03T10:34:08;24.40;99.90
32769;DHT22;23049;54.304;8.826;2022-08-03T10:36:36;24.50;99.90
32769;DHT22;23049;54.304;8.826;2022-08-03T10:39:03;24.40;99.90
32769;DHT22;23049;54.304;8.826;2022-08-03T10:41:35;24.60;99.90
32769;DHT22;23049;54.304;8.826;2022-08-03T10:44:04;24.60;99.90
32769;DHT22;23049;54.304;8.826;2022-08-03T10:46:32;24.80;99.90
32769;DHT22;23049;54.304;8.826;2022-08-03T10:48:58;24.80;99.90
32769;DHT22;23049;54.304;8.826;2022-08-03T10:51:25;24.80;99.90
32769;DHT22;23049;54.304;8.826;2022-08-03T10:53:55;24.80;99.90
32769;DHT22;23049;54.304;8.826;2022-08-03T11:02:12;25.20;99.90
32769;DHT22;23049;54.304;8.826;2022-08-03T11:04:39;25.30;99.90
32769;DHT22;23049;54.304;8.826;2022-08-03T11:09:42;25.40;99.90
32769;DHT22;23049;54.304;8.826;2022-08-03T11:14:47;25.50;99.90
32769;DHT22;23049;54.304;8.826;2022-08-03T11:17:13;25.60;99.90
32769;DHT22;23049;54.304;8.826;2022-08-03T11:19:46;25.60;99.90
32769;DHT22;23049;54.304;8.826;2022-08-03T11:22:13;25.70;99.90
32769;DHT22;23049;54.304;8.826;2022-08-03T11:27:18;25.60;99.90
32769;DHT22;23049;54.304;8.826;2022-08-03T11:32:57;25.60;99.90
32769;DHT22;23049;54.304;8.826;2022-08-03T11:35:33;25.80;99.90
32769;DHT22;23049;54.304;8.826;2022-08-03T11:38:08;25.60;99.90
32769;DHT22;23049;54.304;8.826;2022-08-03T11:40:50;25.70;99.90
32769;DHT22;23049;54.304;8.826;2022-08-03T11:45:59;25.70;99.90
32769;DHT22;23049;54.304;8.826;2022-08-03T11:48:35;25.70;99.90
32769;DHT22;23049;54.304;8.826;2022-08-03T11:51:02;25.90;99.90
32769;DHT22;23049;54.304;8.826;2022-08-03T11:53:29;26.10;99.90
32769;DHT22;23049;54.304;8.826;2022-08-03T11:55:58;26.10;99.90
32769;DHT22;23049;54.304;8.826;2022-08-03T11:58:24;26.30;99.90
32769;DHT22;23049;54.304;8.826;2022-08-03T12:00:50;26.40;99.90
32769;DHT22;23049;54.304;8.826;2022-08-03T12:03:18;26.40;99.90
32769;DHT22;23049;54.304;8.826;2022-08-03T12:05:50;26.30;99.90
32769;DHT22;23049;54.304;8.826;2022-08-03T12:08:18;26.40;99.90
32769;DHT22;23049;54.304;8.826;2022-08-03T12:10:54;26.50;99.90
32769;DHT22;23049;54.304;8.826;2022-08-03T12:13:21;26.70;99.90
32769;DHT22;23049;54.304;8.826;2022-08-03T12:15:55;26.70;99.90
32769;DHT22;23049;54.304;8.826;2022-08-03T12:18:22;26.80;99.90
32769;DHT22;23049;54.304;8.826;2022-08-03T12:20:50;26.80;99.90
32769;DHT22;23049;54.304;8.826;2022-08-03T12:23:16;26.70;99.90
32769;DHT22;23049;54.304;8.826;2022-08-03T12:25:44;26.80;99.90
32769;DHT22;23049;54.304;8.826;2022-08-03T12:28:18;26.80;99.90
32769;DHT22;23049;54.304;8.826;2022-08-03T12:30:49;26.80;99.90
32769;DHT22;23049;54.304;8.826;2022-08-03T12:35:46;26.80;99.90
32769;DHT22;23049;54.304;8.826;2022-08-03T12:38:12;26.70;99.90
32769;DHT22;23049;54.304;8.826;2022-08-03T12:40:38;26.80;99.90
32769;DHT22;23049;54.304;8.826;2022-08-03T12:43:11;26.80;99.90
32769;DHT22;23049;54.304;8.826;2022-08-03T12:45:37;26.80;99.90
32769;DHT22;23049;54.304;8.826;2022-08-03T12:48:08;26.90;99.90
32769;DHT22;23049;54.304;8.826;2022-08-03T12:50:35;27.00;99.90
32769;DHT22;23049;54.304;8.826;2022-08-03T12:53:04;27.00;99.90
32769;DHT22;23049;54.304;8.826;2022-08-03T12:55:31;27.00;99.90
32769;DHT22;23049;54.304;8.826;2022-08-03T12:58:07;27.00;99.90
32769;DHT22;23049;54.304;8.826;2022-08-03T13:00:35;27.00;99.90
32769;DHT22;23049;54.304;8.826;2022-08-03T13:03:05;27.00;99.90
32769;DHT22;23049;54.304;8.826;2022-08-03T13:05:44;27.00;99.90
32769;DHT22;23049;54.304;8.826;2022-08-03T13:08:36;27.10;99.90
32769;DHT22;23049;54.304;8.826;2022-08-03T13:13:47;27.00;99.90
32769;DHT22;23049;54.304;8.826;2022-08-03T13:16:13;27.00;99.90
32769;DHT22;23049;54.304;8.826;2022-08-03T13:18:39;27.20;99.90
32769;DHT22;23049;54.304;8.826;2022-08-03T13:21:04;27.20;99.90
32769;DHT22;23049;54.304;8.826;2022-08-03T13:23:30;27.10;99.90
32769;DHT22;23049;54.304;8.826;2022-08-03T13:25:55;27.20;99.90
32769;DHT22;23049;54.304;8.826;2022-08-03T13:28:21;27.20;99.90
32769;DHT22;23049;54.304;8.826;2022-08-03T13:30:47;27.30;99.90
32769;DHT22;23049;54.304;8.826;2022-08-03T13:33:12;27.20;99.90
32769;DHT22;23049;54.304;8.826;2022-08-03T13:35:38;27.10;99.90
32769;DHT22;23049;54.304;8.826;2022-08-03T13:38:04;27.00;99.90
32769;DHT22;23049;54.304;8.826;2022-08-03T13:40:29;27.10;99.90
32769;DHT22;23049;54.304;8.826;2022-08-03T13:42:57;27.20;99.90
32769;DHT22;23049;54.304;8.826;2022-08-03T13:45:23;27.10;99.90
32769;DHT22;23049;54.304;8.826;2022-08-03T13:47:49;27.10;99.90
32769;DHT22;23049;54.304;8.826;2022-08-03T13:50:15;26.90;99.90
32769;DHT22;23049;54.304;8.826;2022-08-03T13:52:40;26.80;99.90
32769;DHT22;23049;54.304;8.826;2022-08-03T13:55:07;26.70;99.90
32769;DHT22;23049;54.304;8.826;2022-08-03T13:57:35;26.60;99.90
32769;DHT22;23049;54.304;8.826;2022-08-03T14:00:03;26.70;99.90
32769;DHT22;23049;54.304;8.826;2022-08-03T14:02:29;26.70;99.90
32769;DHT22;23049;54.304;8.826;2022-08-03T14:04:56;26.80;99.90
32769;DHT22;23049;54.304;8.826;2022-08-03T14:07:22;26.80;99.90
32769;DHT22;23049;54.304;8.826;2022-08-03T14:09:48;26.90;99.90
32769;DHT22;23049;54.304;8.826;2022-08-03T14:12:22;27.10;99.90
32769;DHT22;23049;54.304;8.826;2022-08-03T14:14:48;27.00;99.90
32769;DHT22;23049;54.304;8.826;2022-08-03T14:17:14;27.00;99.90
32769;DHT22;23049;54.304;8.826;2022-08-03T14:19:40;26.90;99.90
32769;DHT22;23049;54.304;8.826;2022-08-03T14:22:06;26.80;99.90
32769;DHT22;23049;54.304;8.826;2022-08-03T14:24:31;26.70;99.90
32769;DHT22;23049;54.304;8.826;2022-08-03T14:26:57;26.80;99.90
32769;DHT22;23049;54.304;8.826;2022-08-03T14:29:23;26.90;99.90
32769;DHT22;23049;54.304;8.826;2022-08-03T14:31:49;26.90;99.90
32769;DHT22;23049;54.304;8.826;2022-08-03T14:34:15;26.80;99.90
32769;DHT22;23049;54.304;8.826;2022-08-03T14:36:40;26.70;99.90
32769;DHT22;23049;54.304;8.826;2022-08-03T14:39:06;26.70;99.90
32769;DHT22;23049;54.304;8.826;2022-08-03T14:41:32;26.80;99.90
32769;DHT22;23049;54.304;8.826;2022-08-03T14:43:58;26.90;99.90
32769;DHT22;23049;54.304;8.826;2022-08-03T14:46:23;26.90;99.90
32769;DHT22;23049;54.304;8.826;2022-08-03T14:48:49;27.00;99.90
32769;DHT22;23049;54.304;8.826;2022-08-03T14:51:15;27.00;99.90
32769;DHT22;23049;54.304;8.826;2022-08-03T14:53:40;27.00;99.90
32769;DHT22;23049;54.304;8.826;2022-08-03T14:56:06;27.00;99.90
32769;DHT22;23049;54.304;8.826;2022-08-03T14:58:31;27.00;99.90
32769;DHT22;23049;54.304;8.826;2022-08-03T15:00:57;27.00;99.90
32769;DHT22;23049;54.304;8.826;2022-08-03T15:03:24;26.90;99.90
32769;DHT22;23049;54.304;8.826;2022-08-03T15:05:54;27.00;99.90
32769;DHT22;23049;54.304;8.826;2022-08-03T15:08:22;26.90;99.90
32769;DHT22;23049;54.304;8.826;2022-08-03T15:10:48;26.80;99.90
32769;DHT22;23049;54.304;8.826;2022-08-03T15:13:15;26.80;99.90
32769;DHT22;23049;54.304;8.826;2022-08-03T15:15:41;26.60;99.90
32769;DHT22;23049;54.304;8.826;2022-08-03T15:18:07;26.60;99.90
32769;DHT22;23049;54.304;8.826;2022-08-03T15:20:32;26.60;99.90
32769;DHT22;23049;54.304;8.826;2022-08-03T15:22:58;26.40;99.90
32769;DHT22;23049;54.304;8.826;2022-08-03T15:25:24;26.40;99.90
32769;DHT22;23049;54.304;8.826;2022-08-03T15:27:49;26.30;99.90
32769;DHT22;23049;54.304;8.826;2022-08-03T15:30:15;26.40;99.90
32769;DHT22;23049;54.304;8.826;2022-08-03T15:32:41;26.30;99.90
32769;DHT22;23049;54.304;8.826;2022-08-03T15:35:06;26.30;99.90
32769;DHT22;23049;54.304;8.826;2022-08-03T15:37:32;26.20;99.90
32769;DHT22;23049;54.304;8.826;2022-08-03T15:39:58;26.10;99.90
32769;DHT22;23049;54.304;8.826;2022-08-03T15:42:23;26.00;99.90
32769;DHT22;23049;54.304;8.826;2022-08-03T15:44:49;25.90;99.90
32769;DHT22;23049;54.304;8.826;2022-08-03T15:47:14;25.70;99.90
32769;DHT22;23049;54.304;8.826;2022-08-03T15:49:41;25.70;99.90
32769;DHT22;23049;54.304;8.826;2022-08-03T15:52:06;25.70;99.90
32769;DHT22;23049;54.304;8.826;2022-08-03T15:54:32;25.30;99.90
32769;DHT22;23049;54.304;8.826;2022-08-03T15:56:57;24.80;99.90
32769;DHT22;23049;54.304;8.826;2022-08-03T15:59:23;24.50;99.90
32769;DHT22;23049;54.304;8.826;2022-08-03T16:01:49;24.30;99.90
32769;DHT22;23049;54.304;8.826;2022-08-03T16:04:14;24.30;99.90
32769;DHT22;23049;54.304;8.826;2022-08-03T16:06:40;24.30;99.90
32769;DHT22;23049;54.304;8.826;2022-08-03T16:09:06;24.20;99.90
32769;DHT22;23049;54.304;8.826;2022-08-03T16:11:33;24.00;99.90
32769;DHT22;23049;54.304;8.826;2022-08-03T16:13:59;24.20;99.90
32769;DHT22;23049;54.304;8.826;2022-08-03T16:16:25;24.40;99.90
32769;DHT22;23049;54.304;8.826;2022-08-03T16:18:51;24.80;99.90
32769;DHT22;23049;54.304;8.826;2022-08-03T16:21:16;24.60;99.90
32769;DHT22;23049;54.304;8.826;2022-08-03T16:23:42;24.50;99.90
32769;DHT22;23049;54.304;8.826;2022-08-03T16:26:10;24.10;99.90
32769;DHT22;23049;54.304;8.826;2022-08-03T16:28:36;24.10;99.90
32769;DHT22;23049;54.304;8.826;2022-08-03T16:31:03;24.00;99.90